Time;durP1;ratioP1;P1;durP2;ratioP2;P2;SDS_P1;SDS_P2;PMS_P1;PMS_P2;Temp;Humidity;BMP_temperature;BMP_pressure;BME280_temperature;BME280_humidity;BME280_pressure;Samples;Min_cycle;Max_cycle;Signal;HPM_P1;HPM_P2
2020/12/25 00:04:25;;;;;;;37.17;16.63;;;;;;;6.60;100.00;94462.69;10492029;28;20039;-77
2020/12/25 00:09:25;;;;;;;36.30;17.47;;;;;;;6.60;100.00;94450.16;10529661;28;20024;-77
2020/12/25 00:14:25;;;;;;;31.63;15.70;;;;;;;6.54;100.00;94448.50;10527947;28;20096;-78
2020/12/25 00:19:26;;;;;;;30.75;16.25;;;;;;;6.62;100.00;94450.72;10528083;28;20419;-77
2020/12/25 00:24:26;;;;;;;33.50;16.45;;;;;;;6.49;100.00;94459.16;10528832;28;20036;-78
2020/12/25 00:29:27;;;;;;;32.03;16.03;;;;;;;6.47;100.00;94463.94;10494337;28;20489;-77
2020/12/25 00:34:27;;;;;;;33.27;15.20;;;;;;;6.45;100.00;94482.09;10486434;28;20340;-78
2020/12/25 00:39:27;;;;;;;35.70;17.47;;;;;;;6.36;100.00;94489.72;10486826;28;20282;-78
2020/12/25 00:44:28;;;;;;;34.90;15.63;;;;;;;6.12;100.00;94465.22;10487191;28;20028;-78
2020/12/25 00:49:28;;;;;;;31.13;15.37;;;;;;;6.04;100.00;94468.31;10470596;28;20063;-78
2020/12/25 00:54:29;;;;;;;34.10;16.35;;;;;;;5.97;100.00;94474.69;10494890;28;20039;-77
2020/12/25 00:59:29;;;;;;;32.20;16.10;;;;;;;5.96;100.00;94485.56;10493815;28;20037;-77
2020/12/25 01:04:29;;;;;;;36.03;17.52;;;;;;;5.78;100.00;94497.38;10498535;28;20266;-77
2020/12/25 01:09:30;;;;;;;35.17;17.07;;;;;;;5.84;100.00;94475.03;10535504;28;20027;-77
2020/12/25 01:14:31;;;;;;;35.10;17.37;;;;;;;5.80;100.00;94471.25;10534834;28;20410;-76
2020/12/25 01:19:31;;;;;;;25.60;14.30;;;;;;;5.86;100.00;94472.94;10534561;28;20827;-77
2020/12/25 01:24:31;;;;;;;33.77;15.47;;;;;;;5.76;100.00;94462.13;10534806;28;20036;-77
2020/12/25 01:29:32;;;;;;;32.17;15.43;;;;;;;5.64;100.00;94463.06;10534790;28;20104;-76
2020/12/25 01:34:32;;;;;;;32.47;16.40;;;;;;;5.70;100.00;94447.13;10511375;28;20388;-77
2020/12/25 01:39:33;;;;;;;35.33;16.60;;;;;;;5.72;100.00;94442.34;10474292;28;20479;-77
2020/12/25 01:44:33;;;;;;;28.93;14.97;;;;;;;5.85;100.00;94443.81;10490985;28;20021;-77
2020/12/25 01:49:33;;;;;;;32.30;15.77;;;;;;;5.74;100.00;94435.72;10491693;28;20039;-77
2020/12/25 01:54:34;;;;;;;32.05;13.30;;;;;;;5.85;100.00;94428.63;10490675;28;20374;-77
2020/12/25 01:59:35;;;;;;;24.17;12.88;;;;;;;6.01;100.00;94429.63;10528828;28;20057;-77
2020/12/25 02:04:35;;;;;;;29.63;14.35;;;;;;;5.97;100.00;94434.66;10532573;28;20380;-77
2020/12/25 02:09:35;;;;;;;38.97;20.25;;;;;;;6.03;100.00;94427.50;10532509;28;20082;-79
2020/12/25 02:14:36;;;;;;;30.20;16.23;;;;;;;5.96;100.00;94433.00;10532028;28;20032;-77
2020/12/25 02:19:37;;;;;;;41.47;20.23;;;;;;;5.98;100.00;94422.13;10531968;28;20048;-76
2020/12/25 02:24:37;;;;;;;32.90;17.02;;;;;;;5.94;100.00;94424.44;10513606;28;20027;-77
2020/12/25 02:29:38;;;;;;;36.97;19.30;;;;;;;6.01;100.00;94423.47;10513786;28;20024;-77
2020/12/25 02:34:38;;;;;;;34.17;16.97;;;;;;;6.04;100.00;94414.97;10532545;28;20055;-77
2020/12/25 02:39:38;;;;;;;37.07;18.17;;;;;;;6.00;100.00;94428.03;10531415;28;20028;-77
2020/12/25 02:44:39;;;;;;;34.23;18.67;;;;;;;5.79;100.00;94417.13;10531516;28;20036;-77
2020/12/25 02:49:40;;;;;;;35.38;17.55;;;;;;;5.79;100.00;94417.13;10513361;28;20780;-77
2020/12/25 02:54:40;;;;;;;36.90;19.05;;;;;;;5.70;100.00;94402.59;10531335;28;20043;-77
2020/12/25 02:59:40;;;;;;;34.15;15.93;;;;;;;5.72;100.00;94397.84;10530774;28;20064;-77
2020/12/25 03:04:41;;;;;;;38.20;18.47;;;;;;;5.56;100.00;94398.72;10530868;28;20039;-78
2020/12/25 03:09:41;;;;;;;29.53;15.37;;;;;;;5.46;100.00;94391.44;10531034;28;20116;-77
2020/12/25 03:14:41;;;;;;;27.03;13.80;;;;;;;5.45;100.00;94363.94;10529922;28;20273;-77
2020/12/25 03:19:42;;;;;;;29.43;14.53;;;;;;;5.27;100.00;94397.06;10511660;28;20385;-76
2020/12/25 03:24:42;;;;;;;30.13;13.73;;;;;;;5.30;100.00;94391.25;10511670;28;20028;-76
2020/12/25 03:29:42;;;;;;;33.03;15.37;;;;;;;5.20;100.00;94388.44;10530149;28;20026;-77
2020/12/25 03:34:43;;;;;;;26.97;13.17;;;;;;;5.31;100.00;94371.53;10529558;28;20111;-77
2020/12/25 03:39:44;;;;;;;24.67;13.75;;;;;;;5.26;100.00;94378.66;10529319;28;20149;-77
2020/12/25 03:44:44;;;;;;;29.50;13.40;;;;;;;5.27;100.00;94389.09;10529164;28;20036;-77
2020/12/25 03:49:44;;;;;;;30.10;14.07;;;;;;;5.31;100.00;94376.84;10510859;28;20035;-77
2020/12/25 03:54:45;;;;;;;29.73;14.23;;;;;;;5.26;100.00;94358.16;10529348;28;20649;-76
2020/12/25 03:59:45;;;;;;;29.83;13.75;;;;;;;5.33;100.00;94370.47;10529716;28;20743;-76
2020/12/25 04:04:46;;;;;;;28.00;15.00;;;;;;;5.41;100.00;94360.16;10528464;28;20505;-77
2020/12/25 04:09:46;;;;;;;26.30;13.30;;;;;;;5.47;100.00;94356.53;10528948;28;20901;-77
2020/12/25 04:14:46;;;;;;;24.17;12.23;;;;;;;5.33;100.00;94360.63;10529392;28;20414;-77
2020/12/25 04:19:47;;;;;;;23.97;12.20;;;;;;;5.33;100.00;94367.81;10528256;28;20515;-77
2020/12/25 04:24:47;;;;;;;25.90;11.57;;;;;;;5.20;100.00;94369.00;10513774;28;20090;-77
2020/12/25 04:29:47;;;;;;;27.30;12.10;;;;;;;5.19;100.00;94381.53;10537416;28;20026;-77
2020/12/25 04:34:48;;;;;;;30.70;13.70;;;;;;;5.16;100.00;94373.22;10536309;28;20070;-76
2020/12/25 04:39:48;;;;;;;25.80;12.87;;;;;;;4.85;100.00;94383.47;10535932;28;20032;-76
2020/12/25 04:44:48;;;;;;;23.40;12.20;;;;;;;4.97;100.00;94379.63;10536221;28;20039;-76
2020/12/25 04:49:49;;;;;;;25.27;13.13;;;;;;;4.66;100.00;94388.25;10536116;28;20035;-76
2020/12/25 04:54:49;;;;;;;29.50;13.63;;;;;;;4.74;100.00;94385.97;10535231;28;20028;-76
2020/12/25 04:59:50;;;;;;;26.50;12.73;;;;;;;4.77;100.00;94400.66;10535476;28;20039;-76
2020/12/25 05:04:50;;;;;;;28.02;14.43;;;;;;;4.72;100.00;94393.41;10536064;28;20109;-76
2020/12/25 05:09:54;;;;;;;25.08;13.05;;;;;;;4.85;100.00;94402.13;10534844;28;20024;-76
2020/12/25 05:14:55;;;;;;;25.70;14.23;;;;;;;4.87;100.00;94392.00;10493626;28;20161;-77
2020/12/25 05:19:56;;;;;;;26.63;12.90;;;;;;;4.71;100.00;94404.31;10494761;28;20057;-77
2020/12/25 05:25:01;;;;;;;25.92;13.18;;;;;;;4.75;100.00;94408.91;10524924;28;20032;-77
2020/12/25 05:30:06;;;;;;;23.60;13.02;;;;;;;4.54;100.00;94399.81;10506452;28;20031;-77
2020/12/25 05:35:06;;;;;;;31.17;15.13;;;;;;;4.51;100.00;94405.63;10491460;28;20034;-77
2020/12/25 05:40:09;;;;;;;30.00;14.80;;;;;;;4.65;100.00;94392.78;10492447;28;20067;-77
2020/12/25 05:45:09;;;;;;;29.30;15.48;;;;;;;4.67;100.00;94382.69;10491987;28;20494;-77
2020/12/25 05:50:09;;;;;;;25.87;14.33;;;;;;;4.36;100.00;94390.22;10493289;28;20031;-74
2020/12/25 05:55:16;;;;;;;26.00;12.50;;;;;;;4.48;100.00;94397.31;10533712;28;20032;-74
2020/12/25 06:00:26;;;;;;;29.95;13.20;;;;;;;4.53;100.00;94400.06;10533225;28;20036;-74
2020/12/25 06:05:27;;;;;;;29.20;12.82;;;;;;;4.65;100.00;94418.56;10532321;28;20036;-74
2020/12/25 06:10:29;;;;;;;22.13;12.38;;;;;;;4.81;100.00;94406.31;10532531;28;20410;-74
2020/12/25 06:15:31;;;;;;;26.83;12.40;;;;;;;4.83;100.00;94405.03;10532704;28;20117;-75
2020/12/25 06:20:38;;;;;;;22.45;12.50;;;;;;;4.87;100.00;94410.66;10475364;28;20059;-75
2020/12/25 06:25:40;;;;;;;25.70;12.63;;;;;;;4.85;100.00;94434.06;10490488;28;20525;-75
2020/12/25 06:30:40;;;;;;;21.35;11.75;;;;;;;4.93;100.00;94423.78;10504741;28;20389;-75
2020/12/25 06:35:45;;;;;;;32.23;12.77;;;;;;;4.83;100.00;94439.63;10524146;28;20040;-75
2020/12/25 06:40:47;;;;;;;28.75;13.57;;;;;;;5.04;100.00;94448.72;10489266;28;21030;-75
2020/12/25 06:45:52;;;;;;;27.75;14.15;;;;;;;5.21;100.00;94458.53;10514033;28;20119;-74
2020/12/25 06:50:55;;;;;;;26.77;16.02;;;;;;;5.17;100.00;94446.75;10540987;28;20031;-75
2020/12/25 06:56:07;;;;;;;26.20;13.93;;;;;;;5.31;100.00;94435.47;10530881;28;20036;-75
2020/12/25 07:01:08;;;;;;;33.03;15.43;;;;;;;5.31;100.00;94451.47;10530127;28;20526;-75
2020/12/25 07:06:11;;;;;;;31.33;15.43;;;;;;;5.39;100.00;94439.56;10522478;28;20050;-74
2020/12/25 07:11:12;;;;;;;31.67;16.70;;;;;;;5.58;100.00;94431.25;10523205;28;20086;-74
2020/12/25 07:16:12;;;;;;;22.42;13.20;;;;;;;5.78;100.00;94441.38;10504652;28;20486;-74
2020/12/25 07:21:13;;;;;;;27.65;13.57;;;;;;;5.99;100.00;94429.06;10510286;28;20045;-74
2020/12/25 07:26:14;;;;;;;29.23;14.20;;;;;;;6.16;100.00;94420.97;10509055;28;20040;-74
2020/12/25 07:31:14;;;;;;;33.20;16.77;;;;;;;6.35;100.00;94413.41;10479706;28;20033;-74
2020/12/25 07:36:16;;;;;;;30.47;16.20;;;;;;;6.49;100.00;94421.78;10480815;28;20032;-74
2020/12/25 07:41:16;;;;;;;30.45;16.85;;;;;;;6.53;100.00;94428.22;10482421;28;20286;-73
2020/12/25 07:46:17;;;;;;;32.23;16.97;;;;;;;6.61;100.00;94442.97;10483056;28;20043;-74
2020/12/25 07:51:17;;;;;;;44.73;21.83;;;;;;;6.55;100.00;94439.44;10514417;28;20036;-74
2020/12/25 07:56:20;;;;;;;41.70;21.05;;;;;;;6.77;100.00;94450.03;10522308;28;20281;-74
2020/12/25 08:01:22;;;;;;;38.22;19.17;;;;;;;6.87;100.00;94435.16;10523312;28;20054;-74
2020/12/25 08:06:25;;;;;;;41.72;21.48;;;;;;;7.08;100.00;94450.22;10524605;28;20482;-74
2020/12/25 08:11:26;;;;;;;45.92;20.23;;;;;;;7.14;100.00;94456.41;10527663;28;20131;-75
2020/12/25 08:16:27;;;;;;;46.95;21.75;;;;;;;7.44;100.00;94463.81;10531794;28;20130;-75
2020/12/25 08:21:36;;;;;;;38.17;19.45;;;;;;;7.70;100.00;94451.34;10528620;28;20058;-74
2020/12/25 08:26:39;;;;;;;31.27;17.45;;;;;;;7.98;100.00;94453.84;10520372;28;20053;-74
2020/12/25 08:31:40;;;;;;;46.20;22.40;;;;;;;7.98;100.00;94438.59;10490420;28;20483;-75
2020/12/25 08:36:42;;;;;;;39.58;19.77;;;;;;;8.14;100.00;94444.78;10530874;28;20028;-75
2020/12/25 08:41:42;;;;;;;42.38;20.42;;;;;;;8.30;100.00;94448.31;10534523;28;20032;-75
2020/12/25 08:46:42;;;;;;;35.03;19.70;;;;;;;8.31;100.00;94433.03;10518217;28;20032;-74
2020/12/25 08:51:43;;;;;;;36.33;21.13;;;;;;;8.24;100.00;94448.56;10503568;28;20285;-75
2020/12/25 08:56:43;;;;;;;39.58;23.38;;;;;;;8.39;100.00;94444.00;10504757;28;20479;-75
2020/12/25 09:01:44;;;;;;;33.53;17.50;;;;;;;8.40;100.00;94436.81;10512385;28;20112;-75
2020/12/25 09:06:49;;;;;;;33.60;18.50;;;;;;;8.53;100.00;94412.19;10483558;28;20036;-75
2020/12/25 09:11:49;;;;;;;37.05;16.90;;;;;;;8.58;100.00;94397.19;10473900;28;20032;-76
2020/12/25 09:16:49;;;;;;;33.17;17.90;;;;;;;8.42;100.00;94410.53;10473130;28;20480;-75
2020/12/25 09:21:50;;;;;;;44.33;20.43;;;;;;;8.46;100.00;94386.75;10490157;28;20302;-75
2020/12/25 09:26:50;;;;;;;36.43;19.37;;;;;;;8.44;100.00;94384.31;10490440;28;20064;-75
2020/12/25 09:31:51;;;;;;;37.30;19.15;;;;;;;8.59;100.00;94372.81;10490576;28;20028;-75
2020/12/25 09:36:51;;;;;;;44.90;20.57;;;;;;;9.07;100.00;94348.34;10489702;28;20036;-75
2020/12/25 09:41:51;;;;;;;33.37;16.70;;;;;;;9.36;100.00;94350.38;10489877;28;20152;-75
2020/12/25 09:46:52;;;;;;;27.80;14.80;;;;;;;9.60;100.00;94355.09;10491044;28;20284;-75
2020/12/25 09:51:52;;;;;;;39.80;20.67;;;;;;;9.77;100.00;94328.72;10490462;28;20036;-75
2020/12/25 09:56:52;;;;;;;30.45;14.82;;;;;;;9.80;100.00;94346.16;10470405;28;20033;-75
2020/12/25 10:01:53;;;;;;;32.43;14.70;;;;;;;10.20;100.00;94328.13;10510352;28;20471;-76
2020/12/25 10:06:57;;;;;;;26.00;13.83;;;;;;;10.05;100.00;94321.00;10530365;28;20032;-76
2020/12/25 10:11:57;;;;;;;31.17;13.23;;;;;;;10.38;100.00;94324.81;10530030;28;20024;-75
2020/12/25 10:16:58;;;;;;;28.13;12.07;;;;;;;10.57;100.00;94300.72;10530918;28;20407;-76
2020/12/25 10:21:58;;;;;;;24.48;12.63;;;;;;;10.79;100.00;94307.50;10528615;28;20036;-76
2020/12/25 10:26:58;;;;;;;21.93;10.43;;;;;;;10.65;100.00;94264.38;10527753;28;20024;-76
2020/12/25 10:31:59;;;;;;;17.85;9.60;;;;;;;11.11;100.00;94281.88;10529506;28;20471;-76
2020/12/25 10:37:00;;;;;;;18.33;9.50;;;;;;;11.42;100.00;94266.13;10521550;28;20031;-76
2020/12/25 10:42:00;;;;;;;15.75;7.88;;;;;;;11.46;98.65;94275.22;10514017;28;20110;-76
2020/12/25 10:47:00;;;;;;;14.57;8.40;;;;;;;12.00;95.82;94252.69;10527900;28;20035;-74
2020/12/25 10:52:01;;;;;;;12.13;6.95;;;;;;;12.29;91.04;94242.50;10528884;28;20032;-75
2020/12/25 10:57:01;;;;;;;14.47;7.07;;;;;;;12.81;83.10;94242.38;10528413;28;20028;-74
2020/12/25 11:02:02;;;;;;;11.63;6.70;;;;;;;13.34;78.19;94229.47;10526033;28;20024;-74
2020/12/25 11:07:02;;;;;;;14.77;7.18;;;;;;;13.90;72.42;94232.81;10524856;28;20290;-74
2020/12/25 11:12:03;;;;;;;16.05;7.32;;;;;;;13.99;72.88;94230.97;10525811;28;20081;-74
2020/12/25 11:17:03;;;;;;;8.90;5.47;;;;;;;14.62;66.15;94219.41;10508187;28;20074;-75
2020/12/25 11:22:03;;;;;;;17.57;7.40;;;;;;;14.37;67.60;94218.97;10521530;28;20036;-77
2020/12/25 11:27:04;;;;;;;17.92;8.77;;;;;;;14.59;66.89;94210.00;10525999;28;20078;-75
2020/12/25 11:32:04;;;;;;;14.43;8.00;;;;;;;15.25;62.58;94206.63;10507705;28;20026;-74
2020/12/25 11:37:05;;;;;;;20.93;8.87;;;;;;;15.08;62.56;94195.75;10524144;28;20059;-74
2020/12/25 11:42:05;;;;;;;20.73;8.77;;;;;;;14.57;64.80;94193.31;10524040;28;20289;-75
2020/12/25 11:47:06;;;;;;;15.40;7.43;;;;;;;13.88;68.17;94212.63;10525356;28;20403;-76
2020/12/25 11:52:06;;;;;;;17.55;8.32;;;;;;;13.40;74.95;94217.47;10507094;28;20079;-75
2020/12/25 11:57:07;;;;;;;17.13;9.48;;;;;;;12.54;83.85;94204.63;10502696;28;20025;-75
2020/12/25 12:02:07;;;;;;;14.90;8.10;;;;;;;12.10;89.82;94202.16;10496855;28;20757;-75
2020/12/25 12:07:07;;;;;;;18.33;8.25;;;;;;;11.86;92.15;94186.09;10484727;28;20043;-75
2020/12/25 12:12:08;;;;;;;26.07;8.30;;;;;;;11.95;92.64;94191.63;10468373;28;20090;-74
2020/12/25 12:17:08;;;;;;;16.63;7.70;;;;;;;11.74;96.08;94170.38;10486115;28;20389;-74
2020/12/25 12:22:08;;;;;;;13.50;7.03;;;;;;;11.69;95.64;94175.84;10485526;28;20037;-74
2020/12/25 12:27:09;;;;;;;13.43;7.63;;;;;;;11.83;95.82;94175.09;10485572;28;20050;-74
2020/12/25 12:32:09;;;;;;;13.93;8.07;;;;;;;11.59;97.52;94176.03;10485607;28;20275;-75
2020/12/25 12:37:09;;;;;;;15.13;8.17;;;;;;;11.53;100.00;94174.50;10485792;28;20093;-75
2020/12/25 12:42:10;;;;;;;14.90;7.93;;;;;;;11.47;98.91;94165.72;10485275;28;20028;-76
2020/12/25 12:47:10;;;;;;;18.40;9.40;;;;;;;11.49;100.00;94166.22;10487512;28;20201;-74
2020/12/25 12:52:11;;;;;;;16.30;8.50;;;;;;;11.52;100.00;94165.63;10534695;28;20046;-75
2020/12/25 12:57:11;;;;;;;24.73;10.37;;;;;;;11.49;100.00;94160.03;10533801;28;20063;-75
2020/12/25 13:02:11;;;;;;;20.57;10.13;;;;;;;11.33;100.00;94160.28;10532652;28;20028;-74
2020/12/25 13:07:12;;;;;;;24.27;11.23;;;;;;;11.57;100.00;94160.16;10531929;28;20281;-75
2020/12/25 13:12:12;;;;;;;33.33;11.13;;;;;;;11.46;100.00;94159.53;10533234;28;20400;-75
2020/12/25 13:17:13;;;;;;;25.83;11.40;;;;;;;11.52;100.00;94162.16;10533234;28;20090;-75
2020/12/25 13:22:13;;;;;;;21.53;12.17;;;;;;;11.60;100.00;94172.25;10534409;28;20818;-75
2020/12/25 13:27:13;;;;;;;22.87;12.33;;;;;;;11.49;100.00;94157.34;10514994;28;20403;-75
2020/12/25 13:32:14;;;;;;;23.80;12.97;;;;;;;11.34;100.00;94179.91;10490113;28;20271;-75
2020/12/25 13:37:14;;;;;;;36.47;15.27;;;;;;;11.30;100.00;94163.53;10489782;28;20539;-74
2020/12/25 13:42:14;;;;;;;32.37;15.60;;;;;;;11.06;100.00;94161.72;10509266;28;20028;-75
2020/12/25 13:47:16;;;;;;;29.80;14.37;;;;;;;10.87;100.00;94147.44;10531328;28;20082;-75
2020/12/25 13:52:16;;;;;;;29.50;12.85;;;;;;;10.88;100.00;94147.16;10532128;28;20341;-75
2020/12/25 13:57:16;;;;;;;31.73;14.00;;;;;;;10.96;100.00;94147.63;10530512;28;20032;-75
2020/12/25 14:02:17;;;;;;;108.37;53.77;;;;;;;10.84;100.00;94137.28;10531464;28;20542;-75
2020/12/25 14:07:17;;;;;;;20.90;12.37;;;;;;;10.65;100.00;94138.06;10516968;28;20035;-76
2020/12/25 14:12:17;;;;;;;27.80;13.83;;;;;;;10.53;100.00;94132.31;10503173;28;20039;-76
2020/12/25 14:17:18;;;;;;;23.17;12.80;;;;;;;10.38;100.00;94131.41;10488543;28;20298;-75
2020/12/25 14:22:18;;;;;;;30.70;13.37;;;;;;;10.21;100.00;94133.69;10491788;28;20032;-76
2020/12/25 14:27:18;;;;;;;23.40;11.10;;;;;;;10.16;100.00;94131.06;10526781;28;20279;-76
2020/12/25 14:32:19;;;;;;;30.08;14.07;;;;;;;10.23;100.00;94118.91;10488175;28;20032;-76
2020/12/25 14:37:20;;;;;;;28.45;12.98;;;;;;;10.10;100.00;94090.03;10488234;28;20402;-75
2020/12/25 14:42:20;;;;;;;25.92;12.50;;;;;;;10.01;100.00;94108.69;10488497;28;20107;-76
2020/12/25 14:47:21;;;;;;;27.27;12.97;;;;;;;9.73;100.00;94110.31;10505125;28;20089;-74
2020/12/25 14:52:21;;;;;;;31.98;12.82;;;;;;;9.85;100.00;94104.53;10529466;28;20270;-74
2020/12/25 14:57:21;;;;;;;32.67;12.07;;;;;;;9.88;100.00;94094.06;10528884;28;20040;-74
2020/12/25 15:02:22;;;;;;;22.87;12.10;;;;;;;10.00;100.00;94096.31;10502094;28;20286;-76
2020/12/25 15:07:22;;;;;;;24.40;10.40;;;;;;;9.94;100.00;94091.31;10507132;28;20708;-73
2020/12/25 15:12:27;;;;;;;22.70;12.13;;;;;;;10.09;100.00;94101.91;10528513;28;20269;-75
2020/12/25 15:17:27;;;;;;;32.65;11.73;;;;;;;10.13;100.00;94094.06;10516722;28;20298;-76
2020/12/25 15:22:28;;;;;;;28.97;13.57;;;;;;;10.01;100.00;94078.34;10485249;28;20028;-75
2020/12/25 15:27:29;;;;;;;28.42;13.32;;;;;;;9.97;100.00;94086.16;10484390;28;20369;-75
2020/12/25 15:32:29;;;;;;;29.17;14.20;;;;;;;9.94;100.00;94070.63;10484754;28;20027;-75
2020/12/25 15:37:29;;;;;;;29.67;14.00;;;;;;;9.89;100.00;94076.06;10487681;28;20033;-75
2020/12/25 15:42:30;;;;;;;34.77;13.37;;;;;;;9.97;100.00;94083.47;10509021;28;20031;-75
2020/12/25 15:47:30;;;;;;;22.90;12.57;;;;;;;9.87;100.00;94088.97;10527208;28;20033;-75
2020/12/25 15:52:30;;;;;;;44.20;17.57;;;;;;;9.88;100.00;94085.22;10508415;28;20024;-75
2020/12/25 15:57:31;;;;;;;23.67;11.97;;;;;;;9.82;100.00;94102.44;10527967;28;20119;-75
2020/12/25 16:02:32;;;;;;;23.67;12.20;;;;;;;9.89;100.00;94076.06;10509643;28;20649;-75
2020/12/25 16:07:32;;;;;;;31.70;12.65;;;;;;;9.93;100.00;94098.56;10526051;28;20035;-75
2020/12/25 16:12:34;;;;;;;30.83;13.13;;;;;;;10.01;100.00;94091.78;10526827;28;20024;-75
2020/12/25 16:17:36;;;;;;;30.30;17.05;;;;;;;10.01;100.00;94097.94;10526471;28;20048;-75
2020/12/25 16:22:38;;;;;;;39.50;15.05;;;;;;;9.78;100.00;94101.41;10532859;28;20440;-74
2020/12/25 16:27:38;;;;;;;32.47;14.98;;;;;;;9.88;100.00;94104.00;10535522;28;20076;-76
2020/12/25 16:32:40;;;;;;;37.53;13.83;;;;;;;9.92;100.00;94088.91;10534910;28;20164;-75
2020/12/25 16:37:40;;;;;;;28.33;15.45;;;;;;;9.95;100.00;94106.31;10534694;28;20297;-76
2020/12/25 16:42:41;;;;;;;28.40;12.70;;;;;;;10.01;100.00;94087.19;10535636;28;20122;-75
2020/12/25 16:47:42;;;;;;;25.23;11.93;;;;;;;10.01;100.00;94100.63;10534643;28;20396;-75
2020/12/25 16:52:42;;;;;;;33.67;14.25;;;;;;;10.01;100.00;94076.47;10534160;28;20032;-76
2020/12/25 16:57:43;;;;;;;29.90;14.23;;;;;;;9.98;100.00;94087.78;10534777;28;20052;-76
2020/12/25 17:02:44;;;;;;;34.63;14.50;;;;;;;9.97;100.00;94094.22;10534057;28;20115;-75
2020/12/25 17:07:44;;;;;;;28.77;14.73;;;;;;;9.97;100.00;94088.84;10533019;28;20024;-76
2020/12/25 17:12:44;;;;;;;24.73;11.63;;;;;;;10.07;100.00;94061.09;10534603;28;20020;-76
2020/12/25 17:17:46;;;;;;;34.83;13.63;;;;;;;9.92;100.00;94089.72;10510670;28;20051;-76
2020/12/25 17:22:46;;;;;;;27.38;13.02;;;;;;;9.87;100.00;94072.88;10491538;28;20313;-76
2020/12/25 17:27:47;;;;;;;34.97;13.03;;;;;;;9.85;100.00;94067.78;10534054;28;20031;-76
2020/12/25 17:32:47;;;;;;;25.47;12.93;;;;;;;9.96;100.00;94046.97;10501831;28;20024;-75
2020/12/25 17:37:48;;;;;;;30.10;15.25;;;;;;;9.97;100.00;94051.28;10516006;28;20035;-76
2020/12/25 17:42:49;;;;;;;50.67;20.33;;;;;;;9.92;100.00;94056.69;10518204;28;20020;-76
2020/12/25 17:47:49;;;;;;;34.40;17.75;;;;;;;9.88;100.00;94053.78;10512382;28;20114;-76
2020/12/25 17:52:49;;;;;;;29.30;13.03;;;;;;;9.91;100.00;94063.16;10528366;28;20701;-76
2020/12/25 17:57:50;;;;;;;26.20;12.43;;;;;;;10.01;100.00;94089.09;10525649;28;20399;-76
2020/12/25 18:02:50;;;;;;;18.90;7.32;;;;;;;9.99;100.00;94089.38;10512400;28;20470;-75
2020/12/25 18:08:00;;;;;;;13.15;6.10;;;;;;;10.08;100.00;94093.03;10529172;28;20169;-75
2020/12/25 18:13:00;;;;;;;14.50;4.78;;;;;;;10.04;100.00;94086.63;10526012;28;20124;-75
2020/12/25 18:18:01;;;;;;;9.18;5.43;;;;;;;10.07;100.00;94069.97;10508915;28;20052;-74
2020/12/25 18:23:01;;;;;;;11.70;5.22;;;;;;;10.09;100.00;94100.00;10521207;28;20039;-74
2020/12/25 18:28:02;;;;;;;9.67;5.20;;;;;;;10.09;100.00;94072.34;10526405;28;20020;-74
2020/12/25 18:33:02;;;;;;;12.53;5.03;;;;;;;10.17;100.00;94058.31;10528090;28;20098;-75
2020/12/25 18:38:03;;;;;;;17.30;7.27;;;;;;;10.01;100.00;94068.41;10524264;28;20279;-75
2020/12/25 18:43:04;;;;;;;13.88;7.07;;;;;;;10.13;100.00;94056.47;10527718;28;20028;-75
2020/12/25 18:48:04;;;;;;;13.23;6.03;;;;;;;10.15;100.00;94070.41;10522883;28;20446;-75
2020/12/25 18:53:05;;;;;;;14.93;7.00;;;;;;;9.95;100.00;94104.47;10506362;28;20270;-74
2020/12/25 18:58:06;;;;;;;20.47;7.37;;;;;;;9.99;100.00;94078.66;10524069;28;20585;-76
2020/12/25 19:03:06;;;;;;;14.90;7.32;;;;;;;10.00;100.00;94076.75;10523628;28;20035;-76
2020/12/25 19:08:07;;;;;;;11.30;6.07;;;;;;;10.07;100.00;94071.84;10522410;28;20465;-76
2020/12/25 19:13:08;;;;;;;12.38;6.40;;;;;;;10.23;100.00;94092.06;10523578;28;20071;-76
2020/12/25 19:18:08;;;;;;;12.57;7.15;;;;;;;10.24;100.00;94082.09;10526353;28;20123;-75
2020/12/25 19:23:09;;;;;;;19.30;10.97;;;;;;;10.21;100.00;94072.75;10507661;28;20427;-76
2020/12/25 19:28:10;;;;;;;11.18;5.93;;;;;;;10.31;100.00;94074.53;10524079;28;20150;-75
2020/12/25 19:33:10;;;;;;;9.35;5.80;;;;;;;10.34;100.00;94087.41;10528349;28;20483;-75
2020/12/25 19:38:11;;;;;;;10.87;5.77;;;;;;;10.39;99.52;94100.75;10528976;28;20027;-75
2020/12/25 19:43:12;;;;;;;13.30;5.13;;;;;;;10.46;98.49;94105.00;10485266;28;20032;-75
2020/12/25 19:48:13;;;;;;;12.90;5.55;;;;;;;10.41;99.55;94114.72;10487260;28;20032;-76
2020/12/25 19:53:13;;;;;;;9.00;4.67;;;;;;;10.39;99.90;94132.97;10496040;28;20024;-76
2020/12/25 19:58:13;;;;;;;10.23;5.13;;;;;;;10.30;100.00;94113.19;10528059;28;20036;-76
2020/12/25 20:03:14;;;;;;;15.87;6.60;;;;;;;10.08;100.00;94119.88;10485321;28;20807;-75
2020/12/25 20:08:14;;;;;;;16.20;7.17;;;;;;;10.00;100.00;94147.34;10495031;28;20269;-75
2020/12/25 20:13:15;;;;;;;9.32;5.50;;;;;;;9.78;100.00;94122.88;10528040;28;20028;-76
2020/12/25 20:18:15;;;;;;;9.27;5.40;;;;;;;9.75;100.00;94134.97;10491035;28;20134;-76
2020/12/25 20:23:15;;;;;;;9.47;5.17;;;;;;;9.34;100.00;94157.56;10486898;28;20075;-76
2020/12/25 20:28:16;;;;;;;9.97;4.40;;;;;;;9.48;100.00;94154.25;10486984;28;20032;-76
2020/12/25 20:33:16;;;;;;;10.00;5.05;;;;;;;9.61;100.00;94124.06;10486100;28;20107;-76
2020/12/25 20:38:17;;;;;;;11.48;5.55;;;;;;;9.46;100.00;94153.72;10500607;28;20032;-76
2020/12/25 20:43:17;;;;;;;12.52;5.00;;;;;;;9.56;100.00;94156.34;10503720;28;20090;-76
2020/12/25 20:48:18;;;;;;;12.17;6.03;;;;;;;9.63;100.00;94150.63;10527636;28;20035;-76
2020/12/25 20:53:18;;;;;;;11.63;6.43;;;;;;;9.58;100.00;94154.16;10527643;28;20270;-76
2020/12/25 20:58:18;;;;;;;11.07;6.00;;;;;;;9.47;100.00;94160.69;10528251;28;20024;-77
2020/12/25 21:03:19;;;;;;;16.73;6.73;;;;;;;9.38;100.00;94149.75;10527224;28;20082;-75
2020/12/25 21:08:19;;;;;;;13.57;6.18;;;;;;;9.46;100.00;94154.53;10532494;28;20031;-76
2020/12/25 21:13:20;;;;;;;11.45;5.97;;;;;;;9.47;100.00;94161.47;10534385;28;20164;-75
2020/12/25 21:18:23;;;;;;;11.30;6.70;;;;;;;9.49;100.00;94163.88;10501282;28;20041;-76
2020/12/25 21:23:23;;;;;;;18.45;7.15;;;;;;;9.49;100.00;94179.97;10492829;28;20050;-76
2020/12/25 21:28:24;;;;;;;11.57;6.60;;;;;;;9.19;100.00;94193.31;10526972;28;20032;-76
2020/12/25 21:33:24;;;;;;;13.40;7.73;;;;;;;9.16;100.00;94220.69;10504589;28;20273;-76
2020/12/25 21:38:25;;;;;;;12.23;6.80;;;;;;;9.25;100.00;94207.47;10517492;28;20036;-76
2020/12/25 21:43:25;;;;;;;10.60;5.63;;;;;;;9.31;100.00;94222.47;10533836;28;20165;-75
2020/12/25 21:48:26;;;;;;;10.32;5.05;;;;;;;9.12;100.00;94203.53;10533006;28;20054;-76
2020/12/25 21:53:27;;;;;;;7.95;5.13;;;;;;;9.10;100.00;94220.97;10534148;28;20498;-75
2020/12/25 21:58:27;;;;;;;9.17;5.60;;;;;;;9.17;100.00;94234.91;10522248;28;20033;-76
2020/12/25 22:03:27;;;;;;;8.90;5.10;;;;;;;9.20;100.00;94219.06;10517684;28;20059;-75
2020/12/25 22:08:28;;;;;;;11.90;5.55;;;;;;;9.03;100.00;94248.91;10516531;28;20376;-75
2020/12/25 22:13:28;;;;;;;8.63;5.37;;;;;;;9.10;100.00;94242.41;10513166;28;20032;-75
2020/12/25 22:18:29;;;;;;;9.27;5.07;;;;;;;9.12;100.00;94256.38;10495810;28;20053;-75
2020/12/25 22:23:29;;;;;;;10.02;4.82;;;;;;;9.15;100.00;94237.03;10489709;28;20044;-76
2020/12/25 22:28:29;;;;;;;11.00;5.40;;;;;;;9.22;100.00;94250.94;10490294;28;20066;-76
2020/12/25 22:33:30;;;;;;;10.20;5.40;;;;;;;9.18;100.00;94231.13;10489326;28;20028;-76
2020/12/25 22:38:30;;;;;;;14.97;6.40;;;;;;;8.97;100.00;94244.66;10516209;28;20057;-76
2020/12/25 22:43:30;;;;;;;17.87;6.83;;;;;;;9.04;100.00;94249.69;10531451;28;20290;-76
2020/12/25 22:48:31;;;;;;;11.63;5.80;;;;;;;9.02;100.00;94270.63;10530819;28;20030;-76